createdAt,value
2019-05-03T00:01:12.901Z,21.30
2019-05-03T00:03:42.529Z,19.53
2019-05-03T00:06:12.058Z,20.63
2019-05-03T00:08:41.476Z,18.97
2019-05-03T00:11:10.230Z,20.00
2019-05-03T00:13:38.823Z,19.47
2019-05-03T00:16:26.514Z,19.73
2019-05-03T00:18:55.182Z,19.83
2019-05-03T00:21:25.398Z,19.40
2019-05-03T00:23:53.928Z,18.67
2019-05-03T00:26:22.672Z,19.37
2019-05-03T00:28:52.063Z,19.20
2019-05-03T00:31:22.579Z,19.03
2019-05-03T00:33:54.097Z,18.83
2019-05-03T00:36:27.729Z,17.67
2019-05-03T00:39:01.952Z,19.23
2019-05-03T00:41:32.000Z,19.00
2019-05-03T00:44:02.250Z,18.33
2019-05-03T00:46:51.751Z,18.07
2019-05-03T00:49:22.500Z,18.47
2019-05-03T00:51:51.687Z,18.47
2019-05-03T00:54:22.178Z,18.50
2019-05-03T00:56:52.262Z,17.80
2019-05-03T00:59:22.123Z,17.53
2019-05-03T01:01:52.130Z,18.17
2019-05-03T01:04:22.366Z,18.17
2019-05-03T01:06:52.663Z,17.80
2019-05-03T01:09:23.267Z,19.13
2019-05-03T01:11:52.446Z,18.30
2019-05-03T01:14:22.579Z,18.00
2019-05-03T01:16:52.210Z,18.37
2019-05-03T01:19:22.722Z,19.47
2019-05-03T01:21:51.566Z,19.83
2019-05-03T01:24:21.729Z,19.47
2019-05-03T01:26:52.442Z,19.03
2019-05-03T01:29:39.874Z,19.07
2019-05-03T01:32:08.388Z,20.30
2019-05-03T01:34:36.868Z,18.37
2019-05-03T01:37:05.412Z,20.43
2019-05-03T01:39:33.917Z,19.07
2019-05-03T01:42:02.792Z,19.43
2019-05-03T01:44:32.692Z,20.47
2019-05-03T01:47:03.896Z,20.13
2019-05-03T01:49:42.645Z,20.70
2019-05-03T01:52:18.779Z,19.97
2019-05-03T01:54:47.356Z,20.53
2019-05-03T01:57:15.908Z,19.17
2019-05-03T01:59:44.420Z,18.77
2019-05-03T02:02:23.050Z,20.63
2019-05-03T02:05:19.824Z,19.43
2019-05-03T02:07:48.742Z,19.93
2019-05-03T02:10:17.368Z,20.23
2019-05-03T02:12:45.954Z,19.77
2019-05-03T02:15:14.456Z,20.03
2019-05-03T02:17:42.989Z,20.87
2019-05-03T02:20:12.676Z,20.70
2019-05-03T02:22:42.771Z,20.07
2019-05-03T02:25:12.403Z,19.50
2019-05-03T02:27:42.286Z,21.80
2019-05-03T02:30:14.296Z,20.23
2019-05-03T02:32:43.872Z,20.40
2019-05-03T02:35:14.032Z,20.73
2019-05-03T02:37:43.998Z,20.53
2019-05-03T02:40:13.241Z,19.87
2019-05-03T02:42:46.384Z,19.87
2019-05-03T02:45:22.571Z,20.83
2019-05-03T02:47:57.985Z,18.43
2019-05-03T02:50:26.538Z,19.13
2019-05-03T02:52:55.378Z,17.67
2019-05-03T02:55:26.041Z,19.87
2019-05-03T02:57:56.334Z,19.97
2019-05-03T03:00:39.074Z,19.50
2019-05-03T03:03:07.592Z,19.60
2019-05-03T03:05:36.253Z,19.87
2019-05-03T03:08:05.957Z,18.90
2019-05-03T03:10:55.667Z,19.97
2019-05-03T03:13:25.652Z,20.17
2019-05-03T03:15:55.408Z,18.93
2019-05-03T03:18:25.584Z,20.07
2019-05-03T03:20:55.788Z,20.03
2019-05-03T03:23:26.399Z,20.23
2019-05-03T03:25:57.028Z,18.57
2019-05-03T03:28:26.128Z,19.13
2019-05-03T03:31:17.320Z,19.93
2019-05-03T03:33:47.111Z,19.00
2019-05-03T03:36:43.034Z,18.90
2019-05-03T03:38:45.776Z,18.20
2019-05-03T03:41:16.291Z,18.00
2019-05-03T03:43:46.367Z,18.53
2019-05-03T03:46:15.972Z,17.67
2019-05-03T03:48:46.055Z,18.20
2019-05-03T03:51:15.565Z,19.33
2019-05-03T03:53:46.559Z,19.33
2019-05-03T03:56:16.200Z,18.53
2019-05-03T03:58:46.482Z,19.07
2019-05-03T04:01:15.763Z,18.23
2019-05-03T04:03:46.022Z,18.00
2019-05-03T04:06:15.518Z,17.97
2019-05-03T04:08:45.379Z,17.30
2019-05-03T04:11:15.545Z,16.50
2019-05-03T04:13:45.369Z,15.77
2019-05-03T04:16:28.635Z,16.43
2019-05-03T04:19:17.376Z,17.30
2019-05-03T04:21:46.304Z,15.73
2019-05-03T04:24:16.241Z,16.60
2019-05-03T04:26:45.396Z,17.47
2019-05-03T04:29:16.053Z,17.93
2019-05-03T04:31:45.801Z,16.57
2019-05-03T04:34:16.209Z,17.00
2019-05-03T04:36:46.143Z,17.17
2019-05-03T04:39:19.712Z,16.80
2019-05-03T04:41:45.370Z,17.00
2019-05-03T04:44:15.411Z,17.37
2019-05-03T04:46:46.486Z,17.27
2019-05-03T04:49:15.126Z,16.57
2019-05-03T04:51:46.496Z,17.53
2019-05-03T04:54:29.313Z,17.67
2019-05-03T04:56:57.813Z,16.80
2019-05-03T04:59:26.369Z,17.47
2019-05-03T05:01:56.016Z,17.43
2019-05-03T05:04:25.373Z,17.23
2019-05-03T05:06:55.525Z,17.07
2019-05-03T05:09:25.881Z,16.93
2019-05-03T05:11:54.952Z,16.27
2019-05-03T05:14:25.666Z,15.33
2019-05-03T05:16:55.714Z,15.67
2019-05-03T05:22:08.114Z,14.00
2019-05-03T05:24:36.662Z,13.27
2019-05-03T05:27:19.870Z,13.83
2019-05-03T05:29:48.432Z,12.53
2019-05-03T05:32:17.034Z,12.87
2019-05-03T05:35:05.169Z,13.53
2019-05-03T05:37:35.243Z,12.90
2019-05-03T05:40:05.277Z,13.03
2019-05-03T05:42:35.049Z,13.67
2019-05-03T05:45:04.970Z,13.63
2019-05-03T05:47:48.013Z,13.03
2019-05-03T05:50:26.959Z,12.17
2019-05-03T05:52:55.471Z,12.10
2019-05-03T05:55:44.732Z,12.03
2019-05-03T05:58:20.060Z,12.50
2019-05-03T06:01:12.214Z,12.30
2019-05-03T06:03:40.715Z,12.23
2019-05-03T06:06:12.266Z,11.23
2019-05-03T06:08:59.223Z,11.83
2019-05-03T06:11:50.095Z,11.13
2019-05-03T06:14:25.811Z,11.07
2019-05-03T06:17:14.536Z,10.77
2019-05-03T06:19:48.268Z,11.67
2019-05-03T06:22:36.427Z,10.80
2019-05-03T06:25:16.335Z,11.30
2019-05-03T06:27:44.880Z,11.50
2019-05-03T06:30:32.595Z,10.90
2019-05-03T06:33:01.470Z,11.83
2019-05-03T06:38:16.774Z,11.10
2019-05-03T06:40:45.315Z,10.70
2019-05-03T06:43:15.620Z,10.00
2019-05-03T06:45:46.683Z,10.37
2019-05-03T06:48:35.174Z,11.23
2019-05-03T06:51:08.679Z,11.50
2019-05-03T06:53:34.612Z,10.17
2019-05-03T06:56:04.540Z,9.80
2019-05-03T07:01:25.151Z,8.77
2019-05-03T07:04:07.803Z,7.07
2019-05-03T07:06:46.722Z,7.63
2019-05-03T07:09:25.014Z,8.03
2019-05-03T07:11:55.392Z,7.80
2019-05-03T07:14:24.674Z,6.97
2019-05-03T07:16:55.328Z,7.23
2019-05-03T07:22:35.197Z,6.87
2019-05-03T07:25:22.942Z,6.20
2019-05-03T07:27:51.492Z,6.97
2019-05-03T07:30:20.056Z,6.97
2019-05-03T07:32:54.527Z,6.60
2019-05-03T07:35:25.140Z,7.27
2019-05-03T07:37:55.301Z,7.07
2019-05-03T07:40:25.237Z,6.30
2019-05-03T07:42:55.429Z,6.83
2019-05-03T07:45:25.596Z,6.73
2019-05-03T07:47:55.913Z,6.60
2019-05-03T07:50:25.829Z,6.37
2019-05-03T07:52:55.808Z,6.20
2019-05-03T07:55:45.549Z,6.57
2019-05-03T07:58:17.233Z,6.73
2019-05-03T08:00:45.966Z,6.50
2019-05-03T08:03:15.431Z,6.93
2019-05-03T08:05:45.460Z,6.30
2019-05-03T08:08:15.613Z,6.20
2019-05-03T08:10:45.041Z,6.60
2019-05-03T08:13:15.103Z,6.37
2019-05-03T08:15:45.127Z,6.17
2019-05-03T08:18:15.317Z,6.07
2019-05-03T08:20:45.117Z,5.40
2019-05-03T08:23:26.418Z,5.30
2019-05-03T08:25:44.620Z,4.67
2019-05-03T08:28:14.561Z,5.37
2019-05-03T08:31:00.572Z,6.50
2019-05-03T08:33:46.936Z,5.83
2019-05-03T08:36:15.764Z,5.43
2019-05-03T08:38:45.203Z,5.30
2019-05-03T08:41:18.335Z,5.17
2019-05-03T08:43:47.676Z,5.33
2019-05-03T08:46:16.446Z,5.70
2019-05-03T08:48:45.597Z,5.23
2019-05-03T08:51:14.865Z,5.40
2019-05-03T08:53:46.541Z,5.37
2019-05-03T08:56:15.709Z,4.93
2019-05-03T08:58:45.101Z,5.07
2019-05-03T09:01:14.796Z,5.10
2019-05-03T09:03:45.628Z,5.17
2019-05-03T09:06:15.429Z,5.30
2019-05-03T09:08:45.767Z,5.50
2019-05-03T09:11:17.185Z,5.13
2019-05-03T09:13:56.239Z,6.10
2019-05-03T09:16:25.133Z,5.10
2019-05-03T09:18:54.893Z,5.37
2019-05-03T09:21:25.524Z,5.00
2019-05-03T09:23:55.389Z,5.20
2019-05-03T09:26:28.993Z,5.93
2019-05-03T09:28:55.652Z,5.43
2019-05-03T09:31:24.750Z,5.03
2019-05-03T09:33:54.794Z,5.60
2019-05-03T09:36:25.425Z,5.20
2019-05-03T09:38:54.926Z,5.43
2019-05-03T09:41:25.694Z,4.83
2019-05-03T09:43:55.508Z,5.87
2019-05-03T09:46:26.596Z,5.50
2019-05-03T09:49:03.297Z,5.27
2019-05-03T09:51:25.768Z,5.30
2019-05-03T09:53:59.742Z,5.00
2019-05-03T09:56:55.318Z,6.00
2019-05-03T09:59:16.474Z,5.50
2019-05-03T10:01:45.633Z,5.17
2019-05-03T10:04:17.639Z,5.10
2019-05-03T10:06:47.346Z,5.13
2019-05-03T10:09:16.483Z,5.93
2019-05-03T10:11:45.858Z,5.10
2019-05-03T10:14:15.550Z,5.03
2019-05-03T10:16:54.605Z,5.90
2019-05-03T10:19:34.861Z,5.20
2019-05-03T10:21:52.914Z,5.33
2019-05-03T10:24:21.432Z,5.13
2019-05-03T10:26:49.952Z,4.93
2019-05-03T10:29:18.470Z,4.77
2019-05-03T10:31:57.542Z,5.30
2019-05-03T10:34:32.021Z,4.80
2019-05-03T10:37:00.639Z,4.60
2019-05-03T10:39:29.148Z,4.30
2019-05-03T10:41:57.678Z,4.73
2019-05-03T10:44:26.274Z,4.77
2019-05-03T10:46:55.940Z,4.87
2019-05-03T10:49:24.684Z,5.03
2019-05-03T10:51:59.053Z,4.80
2019-05-03T10:54:27.593Z,5.33
2019-05-03T10:57:01.893Z,4.70
2019-05-03T10:59:30.888Z,5.30
2019-05-03T11:02:19.593Z,4.50
2019-05-03T11:04:48.145Z,4.60
2019-05-03T11:07:16.785Z,4.73
2019-05-03T11:09:49.721Z,4.53
2019-05-03T11:12:15.617Z,4.80
2019-05-03T11:14:45.544Z,4.27
2019-05-03T11:17:14.897Z,4.50
2019-05-03T11:19:45.276Z,4.53
2019-05-03T11:22:14.599Z,3.90
2019-05-03T11:24:45.442Z,4.27
2019-05-03T11:27:19.445Z,4.53
2019-05-03T11:29:47.947Z,4.20
2019-05-03T11:32:35.657Z,3.40
2019-05-03T11:35:12.408Z,3.90
2019-05-03T11:37:45.528Z,3.47
2019-05-03T11:40:15.705Z,3.50
2019-05-03T11:42:44.921Z,3.60
2019-05-03T11:45:15.260Z,3.70
2019-05-03T11:47:45.699Z,4.13
2019-05-03T11:50:14.823Z,3.93
2019-05-03T11:52:46.772Z,3.83
2019-05-03T11:55:15.916Z,4.13
2019-05-03T11:57:45.002Z,3.80
2019-05-03T12:00:16.675Z,4.30
2019-05-03T12:02:55.598Z,4.00
2019-05-03T12:05:46.072Z,3.43
2019-05-03T12:08:14.778Z,4.20
2019-05-03T12:10:55.235Z,3.90
2019-05-03T12:13:24.574Z,3.40
2019-05-03T12:15:55.284Z,4.27
2019-05-03T12:18:25.183Z,3.83
2019-05-03T12:20:56.839Z,3.90
2019-05-03T12:23:25.739Z,3.97
2019-05-03T12:25:55.638Z,3.50
2019-05-03T12:28:25.705Z,3.47
2019-05-03T12:30:54.381Z,3.80
2019-05-03T12:33:22.893Z,3.90
2019-05-03T12:35:51.398Z,3.70
2019-05-03T12:38:19.922Z,3.77
2019-05-03T12:40:49.594Z,3.53
2019-05-03T12:43:18.112Z,3.70
2019-05-03T12:45:46.599Z,4.53
2019-05-03T12:48:15.615Z,4.30
2019-05-03T12:50:46.409Z,4.40
2019-05-03T12:53:15.159Z,4.17
2019-05-03T12:55:43.875Z,4.33
2019-05-03T12:58:12.451Z,4.10
2019-05-03T13:01:15.809Z,4.07
2019-05-03T13:04:05.722Z,3.70
2019-05-03T13:06:36.257Z,3.87
2019-05-03T13:09:05.921Z,4.10
2019-05-03T13:11:36.567Z,3.90
2019-05-03T13:14:05.294Z,4.03
2019-05-03T13:16:35.348Z,3.97
2019-05-03T13:19:05.637Z,4.07
2019-05-03T13:21:35.547Z,3.60
2019-05-03T13:24:05.505Z,4.10
2019-05-03T13:26:35.039Z,4.20
2019-05-03T13:31:34.695Z,4.10
2019-05-03T13:34:05.464Z,4.10
2019-05-03T13:36:34.886Z,4.00
2019-05-03T13:39:13.923Z,4.63
2019-05-03T13:41:35.655Z,4.27
2019-05-03T13:44:05.180Z,4.83
2019-05-03T13:46:35.295Z,4.63
2019-05-03T13:49:05.397Z,4.53
2019-05-03T13:51:35.793Z,4.67
2019-05-03T13:54:05.521Z,4.50
2019-05-03T13:56:35.327Z,4.87
2019-05-03T13:59:04.658Z,4.53
2019-05-03T14:01:34.455Z,4.93
2019-05-03T14:04:05.150Z,4.53
2019-05-03T14:06:34.537Z,5.10
2019-05-03T14:09:05.237Z,4.60
2019-05-03T14:11:35.334Z,4.83
2019-05-03T14:14:04.718Z,5.37
2019-05-03T14:16:33.434Z,5.00
2019-05-03T14:19:07.570Z,5.13
2019-05-03T14:21:40.826Z,5.73
2019-05-03T14:24:09.408Z,5.30
2019-05-03T14:26:38.081Z,5.10
2019-05-03T14:29:06.608Z,4.97
2019-05-03T14:31:35.195Z,4.83
2019-05-03T14:34:05.809Z,5.03
2019-05-03T14:36:35.868Z,5.20
2019-05-03T14:39:09.331Z,4.90
2019-05-03T14:41:36.594Z,5.23
2019-05-03T14:44:05.218Z,5.30
2019-05-03T14:46:36.073Z,5.77
2019-05-03T14:49:05.538Z,4.93
2019-05-03T14:51:34.983Z,5.57
2019-05-03T14:54:05.360Z,5.20
2019-05-03T14:56:52.586Z,5.30
2019-05-03T14:59:58.406Z,5.77
2019-05-03T15:02:51.084Z,5.83
2019-05-03T15:05:19.565Z,5.97
2019-05-03T15:07:48.083Z,5.70
2019-05-03T15:10:16.645Z,6.20
2019-05-03T15:12:45.381Z,5.83
2019-05-03T15:15:14.710Z,7.07
2019-05-03T15:17:45.580Z,6.37
2019-05-03T15:20:34.715Z,6.93
2019-05-03T15:23:05.328Z,7.10
2019-05-03T15:25:34.567Z,7.83
2019-05-03T15:28:05.070Z,6.90
2019-05-03T15:30:35.233Z,7.33
2019-05-03T15:33:05.267Z,7.30
2019-05-03T15:35:35.144Z,7.17
2019-05-03T15:38:05.365Z,7.23
2019-05-03T15:40:34.454Z,7.00
2019-05-03T15:43:16.712Z,6.67
2019-05-03T15:46:07.167Z,6.60
2019-05-03T15:48:39.995Z,6.97
2019-05-03T15:51:08.518Z,6.57
2019-05-03T15:53:37.007Z,6.20
2019-05-03T15:56:05.559Z,6.57
2019-05-03T15:58:34.063Z,6.20
2019-05-03T16:01:04.533Z,7.20
2019-05-03T16:03:32.840Z,7.03
2019-05-03T16:06:01.335Z,6.83
2019-05-03T16:08:29.955Z,6.30
2019-05-03T16:10:58.436Z,6.97
2019-05-03T16:13:27.074Z,6.70
2019-05-03T16:15:55.659Z,7.50
2019-05-03T16:18:24.668Z,6.10
2019-05-03T16:20:54.585Z,6.27
2019-05-03T16:23:24.965Z,4.90
2019-05-03T16:25:54.386Z,5.27
2019-05-03T16:28:37.392Z,6.37
2019-05-03T16:31:09.083Z,6.10
2019-05-03T16:33:37.610Z,5.97
2019-05-03T16:36:06.115Z,5.50
2019-05-03T16:38:35.454Z,6.60
2019-05-03T16:41:05.161Z,6.57
2019-05-03T16:43:34.811Z,5.83
2019-05-03T16:46:05.494Z,6.17
2019-05-03T16:48:35.313Z,5.30
2019-05-03T16:51:04.101Z,5.73
2019-05-03T16:53:32.579Z,5.83
2019-05-03T16:56:03.378Z,5.70
2019-05-03T16:58:31.339Z,5.97
2019-05-03T17:00:59.903Z,6.43
2019-05-03T17:03:38.539Z,6.00
2019-05-03T17:06:20.676Z,5.83
2019-05-03T17:09:11.417Z,5.93
2019-05-03T17:11:40.021Z,5.40
2019-05-03T17:14:08.546Z,5.30
2019-05-03T17:16:37.082Z,5.90
2019-05-03T17:19:05.959Z,5.77
2019-05-03T17:21:34.945Z,5.77
2019-05-03T17:24:04.362Z,5.77
2019-05-03T17:26:35.133Z,6.17
2019-05-03T17:29:04.968Z,5.60
2019-05-03T17:31:35.241Z,6.67
2019-05-03T17:34:05.535Z,6.40
2019-05-03T17:36:35.466Z,5.80
2019-05-03T17:39:09.188Z,6.23
2019-05-03T17:41:54.702Z,5.37
2019-05-03T17:44:45.073Z,6.10
2019-05-03T17:47:14.932Z,6.37
2019-05-03T17:49:45.201Z,6.13
2019-05-03T17:52:34.381Z,6.23
2019-05-03T17:55:15.441Z,6.17
2019-05-03T17:58:12.279Z,6.13
2019-05-03T18:01:02.797Z,6.07
2019-05-03T18:03:35.011Z,5.90
2019-05-03T18:06:14.950Z,5.90
2019-05-03T18:08:54.990Z,6.00
2019-05-03T18:11:26.285Z,5.83
2019-05-03T18:13:55.918Z,6.43
2019-05-03T18:16:24.500Z,5.97
2019-05-03T18:18:54.664Z,6.43
2019-05-03T18:21:24.491Z,5.97
2019-05-03T18:23:54.534Z,5.60
2019-05-03T18:26:24.963Z,7.00
2019-05-03T18:28:55.358Z,6.57
2019-05-03T18:31:25.020Z,6.07
2019-05-03T18:33:54.774Z,6.07
2019-05-03T18:36:25.277Z,6.50
2019-05-03T18:38:55.240Z,5.90
2019-05-03T18:41:25.484Z,6.43
2019-05-03T18:44:22.691Z,6.50
2019-05-03T18:46:55.044Z,7.00
2019-05-03T18:49:24.795Z,7.17
2019-05-03T18:51:55.411Z,6.50
2019-05-03T18:54:24.654Z,6.03
2019-05-03T18:56:53.377Z,7.00
2019-05-03T18:59:22.058Z,6.50
2019-05-03T19:01:50.759Z,6.30
2019-05-03T19:04:38.478Z,6.57
2019-05-03T19:07:12.613Z,7.47
2019-05-03T19:09:58.478Z,7.07
2019-05-03T19:12:40.541Z,8.50
2019-05-03T19:15:09.667Z,6.80
2019-05-03T19:18:04.351Z,7.40
2019-05-03T19:20:35.109Z,7.23
2019-05-03T19:23:04.973Z,7.43
2019-05-03T19:25:44.048Z,7.07
2019-05-03T19:28:07.449Z,7.50
2019-05-03T19:30:35.538Z,7.37
2019-05-03T19:33:04.359Z,8.50
2019-05-03T19:35:33.055Z,9.23
2019-05-03T19:38:01.726Z,9.50
2019-05-03T19:40:30.279Z,9.73
2019-05-03T19:42:58.839Z,8.67
2019-05-03T19:45:27.352Z,8.60
2019-05-03T19:47:55.888Z,8.53
2019-05-03T19:50:24.849Z,8.60
2019-05-03T19:53:14.375Z,8.00
2019-05-03T19:55:44.882Z,8.53
2019-05-03T19:58:14.439Z,7.67
2019-05-03T20:00:50.735Z,8.07
2019-05-03T20:03:29.406Z,8.60
2019-05-03T20:06:04.853Z,9.07
2019-05-03T20:08:36.704Z,8.37
2019-05-03T20:11:15.317Z,8.00
2019-05-03T20:13:45.143Z,8.17
2019-05-03T20:16:15.470Z,8.80
2019-05-03T20:18:45.434Z,8.40
2019-05-03T20:21:15.269Z,9.03
2019-05-03T20:23:44.819Z,8.70
2019-05-03T20:26:14.961Z,8.77
2019-05-03T20:28:44.918Z,8.80
2019-05-03T20:31:13.727Z,8.57
2019-05-03T20:33:42.261Z,9.03
2019-05-03T20:36:11.002Z,8.90
2019-05-03T20:38:39.513Z,8.43
2019-05-03T20:41:08.016Z,8.63
2019-05-03T20:43:55.654Z,8.57
2019-05-03T20:46:43.307Z,9.13
2019-05-03T20:49:12.421Z,9.33
2019-05-03T20:51:40.897Z,9.17
2019-05-03T20:54:09.442Z,8.93
2019-05-03T20:56:37.983Z,8.87
2019-05-03T20:59:06.501Z,8.33
2019-05-03T21:01:35.021Z,9.07
2019-05-03T21:04:04.794Z,8.63
2019-05-03T21:06:35.849Z,8.97
2019-05-03T21:09:04.692Z,9.63
2019-05-03T21:11:35.427Z,9.40
2019-05-03T21:14:04.792Z,8.63
2019-05-03T21:16:58.896Z,9.60
2019-05-03T21:19:52.555Z,9.90
2019-05-03T21:22:28.902Z,9.30
2019-05-03T21:25:03.444Z,9.60
2019-05-03T21:27:31.962Z,9.83
2019-05-03T21:30:00.451Z,11.67
2019-05-03T21:32:29.057Z,14.00
2019-05-03T21:34:57.576Z,11.27
2019-05-03T21:37:26.125Z,10.43
2019-05-03T21:39:54.924Z,10.70
2019-05-03T21:42:23.529Z,10.97
2019-05-03T21:44:52.039Z,12.10
2019-05-03T21:47:35.164Z,11.27
2019-05-03T21:50:04.704Z,10.70
2019-05-03T21:52:35.318Z,10.90
2019-05-03T21:55:05.452Z,9.90
2019-05-03T21:57:34.466Z,10.23
2019-05-03T22:00:05.516Z,10.10
2019-05-03T22:02:34.261Z,9.80
2019-05-03T22:05:02.800Z,9.87
2019-05-03T22:07:31.301Z,10.03
2019-05-03T22:09:59.913Z,10.43
2019-05-03T22:12:28.394Z,10.40
2019-05-03T22:15:05.118Z,10.43
2019-05-03T22:17:58.803Z,10.87
2019-05-03T22:20:34.916Z,10.20
2019-05-03T22:23:22.469Z,10.30
2019-05-03T22:25:51.060Z,11.13
2019-05-03T22:28:19.594Z,11.43
2019-05-03T22:30:48.179Z,10.70
2019-05-03T22:33:16.687Z,11.63
2019-05-03T22:35:45.233Z,11.93
2019-05-03T22:38:13.650Z,11.70
2019-05-03T22:40:42.182Z,12.70
2019-05-03T22:43:10.665Z,12.33
2019-05-03T22:45:39.209Z,12.80
2019-05-03T22:48:07.739Z,11.63
2019-05-03T22:50:36.288Z,12.23
2019-05-03T22:53:05.554Z,12.70
2019-05-03T22:55:34.225Z,13.30
2019-05-03T22:58:02.751Z,13.20
2019-05-03T23:00:31.243Z,11.87
2019-05-03T23:02:59.771Z,12.30
2019-05-03T23:05:28.392Z,14.13
2019-05-03T23:07:56.915Z,12.77
2019-05-03T23:10:25.800Z,13.17
2019-05-03T23:12:54.428Z,14.13
2019-05-03T23:15:24.372Z,13.30
2019-05-03T23:17:54.550Z,13.27
2019-05-03T23:20:45.315Z,14.37
2019-05-03T23:23:33.051Z,13.93
2019-05-03T23:26:01.675Z,14.83
2019-05-03T23:28:30.134Z,14.90
2019-05-03T23:30:58.662Z,14.53
2019-05-03T23:33:27.175Z,15.10
2019-05-03T23:35:56.087Z,15.13
2019-05-03T23:38:24.818Z,15.00
2019-05-03T23:40:55.317Z,15.23
2019-05-03T23:43:25.184Z,15.77
2019-05-03T23:45:54.555Z,16.47
2019-05-03T23:48:23.123Z,16.40
2019-05-03T23:50:51.790Z,15.73
2019-05-03T23:53:20.304Z,13.20
2019-05-03T23:55:56.181Z,13.97
2019-05-03T23:58:24.733Z,12.77
